Time;durP1;ratioP1;P1;durP2;ratioP2;P2;SDS_P1;SDS_P2;PMS_P1;PMS_P2;Temp;Humidity;BMP_temperature;BMP_pressure;BME280_temperature;BME280_humidity;BME280_pressure;Samples;Min_cycle;Max_cycle;Signal;HPM_P1;HPM_P2
2023/02/08 00:03:27;;;;;;;38.42;22.80;;;-2.10;99.90;;;;;;4779550;29;20054;-82
2023/02/08 00:06:55;;;;;;;39.60;23.10;;;-2.10;99.90;;;;;;4775750;29;20629;-82
2023/02/08 00:49:56;;;;;;;42.95;25.30;;;-2.00;99.90;;;;;;6149550;23;19921;-83
2023/02/08 00:53:10;;;;;;;;;;;;;;;;;;;;;
2023/02/08 00:56:09;;;;;;;41.60;25.25;;;-2.30;99.90;;;;;;6065313;23;20098;-81
2023/02/08 01:03:10;;;;;;;43.63;24.88;;;-2.50;99.90;;;;;;6008601;23;20018;-81
2023/02/08 01:06:35;;;;;;;46.42;27.63;;;-2.10;99.90;;;;;;5982074;23;20098;-82
2023/02/08 01:09:31;;;;;;;42.33;24.60;;;-2.20;99.90;;;;;;5961010;23;20499;-82
2023/02/08 01:27:03;;;;;;;43.70;26.02;;;-2.40;99.90;;;;;;6081333;23;20061;-82
2023/02/08 01:41:29;;;;;;;41.60;25.45;;;-2.80;99.90;;;;;;6062623;23;20062;-82
2023/02/08 01:49:03;;;;;;;44.92;25.25;;;-2.60;99.90;;;;;;5965484;24;20124;-82
2023/02/08 01:52:27;;;;;;;42.72;24.60;;;-2.40;99.90;;;;;;5933489;23;20033;-82
2023/02/08 01:56:02;;;;;;;;;;;;;;;;;;;;;
2023/02/08 02:03:10;;;;;;;42.22;25.58;;;-2.20;99.90;;;;;;6005964;23;20031;-82
2023/02/08 02:06:26;;;;;;;42.33;24.77;;;-2.40;99.90;;;;;;6068590;23;20522;-82
2023/02/08 02:09:55;;;;;;;39.80;24.65;;;-2.70;99.90;;;;;;6086342;23;20093;-82
2023/02/08 02:13:04;;;;;;;41.40;25.40;;;-2.40;99.90;;;;;;6040406;23;20542;-82
2023/02/08 02:23:48;;;;;;;39.10;24.83;;;-2.40;99.90;;;;;;6178835;23;20011;-81
2023/02/08 02:27:22;;;;;;;42.90;25.40;;;-2.40;99.90;;;;;;6172475;23;20429;-81
2023/02/08 02:53:28;;;;;;;44.05;27.20;;;-2.40;99.90;;;;;;5874699;24;20520;-81
2023/02/08 02:56:57;;;;;;;47.53;27.65;;;-2.70;99.90;;;;;;5888927;24;20329;-81
2023/02/08 04:26:54;;;;;;;41.65;25.60;;;-2.50;99.90;;;;;;6090920;23;20049;-81
2023/02/08 04:29:58;;;;;;;43.35;25.08;;;-3.00;99.90;;;;;;6081540;23;20327;-82
2023/02/08 04:33:11;;;;;;;41.47;25.73;;;-2.50;99.90;;;;;;6040021;23;20114;-81
2023/02/08 04:40:06;;;;;;;41.83;26.00;;;-2.50;99.90;;;;;;5951221;24;20066;-81
2023/02/08 04:43:24;;;;;;;41.55;24.42;;;-2.70;99.90;;;;;;5939267;24;20441;-81
2023/02/08 04:58:40;;;;;;;49.28;26.15;;;-3.20;99.90;;;;;;5888739;24;20070;-82
2023/02/08 05:28:49;;;;;;;42.67;22.95;;;-3.50;99.90;;;;;;5569132;22;22288116;-81
2023/02/08 05:35:30;;;;;;;40.17;25.58;;;-2.90;99.90;;;;;;5978993;24;20022;-82
2023/02/08 05:38:18;;;;;;;41.78;25.25;;;-3.60;99.90;;;;;;5933156;24;20815;-81
2023/02/08 05:41:40;;;;;;;39.10;25.33;;;-2.90;99.90;;;;;;5954587;24;20772;-82
2023/02/08 05:48:43;;;;;;;48.55;27.70;;;-3.70;99.90;;;;;;5869966;24;20395;-82
2023/02/08 05:51:55;;;;;;;46.03;27.92;;;-3.40;99.90;;;;;;5854150;24;20542;-82
2023/02/08 05:55:27;;;;;;;48.78;28.95;;;-3.10;99.90;;;;;;5844205;24;20059;-82
2023/02/08 05:58:35;;;;;;;;;;;;;;;;;;;;;
2023/02/08 06:01:53;;;;;;;47.40;28.42;;;-2.80;99.90;;;;;;5877083;24;20029;-81
2023/02/08 06:04:28;;;;;;;46.03;27.25;;;-2.80;99.90;;;;;;5872611;24;20116;-81
2023/02/08 06:07:04;;;;;;;47.75;28.55;;;-3.10;99.90;;;;;;6018485;23;20151;-82
2023/02/08 06:10:07;;;;;;;49.20;29.50;;;-3.00;99.90;;;;;;6047425;23;20014;-81
2023/02/08 06:13:06;;;;;;;49.45;30.48;;;-2.60;99.90;;;;;;5892209;24;20247;-82
2023/02/08 06:15:31;;;;;;;54.65;30.52;;;-2.50;99.90;;;;;;5980394;23;20122;-81
2023/02/08 06:19:48;;;;;;;48.45;29.92;;;-3.10;99.90;;;;;;5956974;23;20688;-81
2023/02/08 06:22:31;;;;;;;50.35;29.50;;;-3.20;99.90;;;;;;5943972;23;20034;-80
2023/02/08 06:25:54;;;;;;;49.30;29.65;;;-2.50;99.90;;;;;;6001284;23;20011;-82
2023/02/08 06:28:48;;;;;;;52.85;29.92;;;-3.00;99.90;;;;;;6011825;23;20106;-82
2023/02/08 06:31:16;;;;;;;55.83;30.48;;;-2.60;99.90;;;;;;5970656;24;20021;-81
2023/02/08 06:33:42;;;;;;;48.95;29.63;;;-2.40;99.90;;;;;;5900943;24;20128;-82
2023/02/08 06:36:08;;;;;;;50.10;29.02;;;-3.00;99.90;;;;;;5900112;24;20024;-80
2023/02/08 06:39:00;;;;;;;48.60;29.77;;;-2.70;99.90;;;;;;5945227;24;20028;-82
2023/02/08 06:49:21;;;;;;;52.20;28.23;;;-3.10;99.90;;;;;;6002867;23;20015;-81
2023/02/08 06:52:27;;;;;;;48.10;28.33;;;-2.60;99.90;;;;;;6003089;23;20091;-80
2023/02/08 07:05:39;;;;;;;49.45;28.02;;;-2.50;99.90;;;;;;4924641;27;7164054;-81
2023/02/08 07:08:06;;;;;;;47.10;28.80;;;-2.80;99.90;;;;;;5156297;27;20046;-82
2023/02/08 07:10:33;;;;;;;49.58;28.63;;;-2.80;99.90;;;;;;5143590;27;20558;-82
2023/02/08 07:13:01;;;;;;;47.83;28.70;;;-2.60;99.90;;;;;;5118168;27;20119;-82
2023/02/08 07:15:29;;;;;;;51.13;30.80;;;-2.80;99.90;;;;;;5122778;27;20077;-81
2023/02/08 07:19:19;;;;;;;48.33;30.27;;;-2.70;99.90;;;;;;5140449;27;20099;-83
2023/02/08 07:21:38;;;;;;;59.30;30.17;;;-3.40;99.90;;;;;;5104785;27;20138;-81
2023/02/08 07:24:04;;;;;;;49.88;30.52;;;-3.10;99.90;;;;;;5082992;27;20047;-83
2023/02/08 07:26:33;;;;;;;51.63;30.92;;;-3.00;99.90;;;;;;5079322;27;20071;-82
2023/02/08 07:29:02;;;;;;;51.08;31.35;;;-2.50;99.90;;;;;;5081619;28;20053;-82
2023/02/08 07:31:28;;;;;;;50.50;30.75;;;-2.70;99.90;;;;;;5078718;27;20321;-81
2023/02/08 07:33:53;;;;;;;49.40;29.73;;;-2.60;99.90;;;;;;5079867;27;20165;-82
2023/02/08 07:36:19;;;;;;;52.63;30.40;;;-3.00;99.90;;;;;;5082066;28;20044;-82
2023/02/08 07:38:48;;;;;;;50.92;30.90;;;-2.40;99.90;;;;;;5110812;27;20161;-82
2023/02/08 07:41:14;;;;;;;50.55;31.42;;;-2.80;99.90;;;;;;5086481;27;20050;-80
2023/02/08 07:43:41;;;;;;;49.60;30.33;;;-2.40;99.90;;;;;;5074516;27;20051;-80
2023/02/08 07:49:38;;;;;;;47.83;30.30;;;-2.20;99.90;;;;;;5108880;28;20043;-80
2023/02/08 07:52:09;;;;;;;51.33;29.75;;;-2.30;99.90;;;;;;5121645;27;20380;-81
2023/02/08 07:54:35;;;;;;;46.08;29.63;;;-2.30;99.90;;;;;;5149760;27;20167;-80
2023/02/08 07:57:01;;;;;;;47.40;29.40;;;-2.30;99.90;;;;;;5130482;27;20076;-80
2023/02/08 07:59:26;;;;;;;45.60;28.38;;;-2.50;99.90;;;;;;5129969;27;20046;-81
2023/02/08 08:01:52;;;;;;;45.17;29.10;;;-2.00;99.90;;;;;;5127345;27;20455;-81
2023/02/08 08:04:18;;;;;;;48.90;28.60;;;-2.10;99.90;;;;;;5144577;27;20084;-81
2023/02/08 08:06:45;;;;;;;46.60;28.20;;;-1.80;99.90;;;;;;5117789;27;20365;-81
2023/02/08 08:09:11;;;;;;;44.63;27.77;;;-2.30;99.90;;;;;;5114563;27;20111;-80
2023/02/08 08:11:37;;;;;;;45.80;27.73;;;-2.20;99.90;;;;;;5117265;27;20350;-81
2023/02/08 08:14:02;;;;;;;48.10;27.88;;;-1.90;99.90;;;;;;5118269;27;20057;-82
2023/02/08 08:16:28;;;;;;;45.88;28.30;;;-1.60;99.90;;;;;;5133064;27;20035;-81
2023/02/08 08:18:54;;;;;;;49.40;28.80;;;-1.70;99.90;;;;;;5116663;27;20272;-82
2023/02/08 08:21:19;;;;;;;46.92;28.95;;;-1.50;99.90;;;;;;5135460;27;20042;-81
2023/02/08 08:23:45;;;;;;;47.83;28.17;;;-1.80;99.90;;;;;;5119498;27;20049;-81
2023/02/08 08:26:16;;;;;;;44.85;27.75;;;-1.40;99.90;;;;;;5118649;27;20057;-82
2023/02/08 08:28:42;;;;;;;44.10;27.40;;;-1.80;99.90;;;;;;5128994;27;20394;-81
2023/02/08 08:31:12;;;;;;;45.75;27.70;;;-1.80;99.90;;;;;;5129225;27;20051;-81
2023/02/08 08:33:38;;;;;;;42.05;26.63;;;-1.40;99.90;;;;;;5129709;27;20070;-81
2023/02/08 08:36:04;;;;;;;41.83;26.50;;;-1.70;99.90;;;;;;5113459;27;20521;-81
2023/02/08 08:38:30;;;;;;;46.10;27.73;;;-1.70;99.90;;;;;;5103188;27;20038;-81
2023/02/08 08:40:55;;;;;;;48.53;28.90;;;-1.20;99.90;;;;;;5106857;27;20035;-82
2023/02/08 08:43:21;;;;;;;42.25;26.45;;;-1.20;99.90;;;;;;5118131;27;20107;-81
2023/02/08 08:45:47;;;;;;;42.38;26.70;;;-1.60;99.90;;;;;;5134205;27;20113;-81
2023/02/08 08:48:13;;;;;;;47.70;25.95;;;-1.30;99.90;;;;;;5115012;27;20187;-82
2023/02/08 08:50:39;;;;;;;43.55;27.52;;;-1.40;99.90;;;;;;5100788;27;20045;-82
2023/02/08 08:53:04;;;;;;;39.22;26.08;;;-1.20;99.90;;;;;;5117365;27;20064;-83
2023/02/08 08:55:30;;;;;;;42.22;25.90;;;-1.00;99.90;;;;;;5119186;27;20118;-82
2023/02/08 08:57:56;;;;;;;38.38;24.77;;;-1.10;99.90;;;;;;5134256;27;20041;-81
2023/02/08 09:00:22;;;;;;;38.08;24.67;;;-0.60;99.90;;;;;;5117611;27;20054;-81
2023/02/08 09:02:47;;;;;;;39.20;24.35;;;-1.10;99.90;;;;;;5106482;27;20077;-81
2023/02/08 09:05:13;;;;;;;37.53;23.65;;;-0.80;99.90;;;;;;5111845;27;20128;-81
2023/02/08 09:07:39;;;;;;;33.40;22.70;;;-0.50;99.90;;;;;;5131300;27;20125;-81
2023/02/08 09:10:05;;;;;;;37.72;23.05;;;-1.00;99.90;;;;;;5130243;27;20046;-84
2023/02/08 09:12:34;;;;;;;40.42;22.50;;;-0.50;99.90;;;;;;5126317;27;20079;-83
2023/02/08 09:15:00;;;;;;;33.60;22.80;;;-0.70;99.90;;;;;;5112369;27;20049;-83
2023/02/08 09:17:25;;;;;;;32.38;21.48;;;-0.70;99.90;;;;;;5098833;27;20478;-82
2023/02/08 09:19:51;;;;;;;33.33;21.42;;;-0.70;99.90;;;;;;5110085;27;20123;-81
2023/02/08 09:22:18;;;;;;;35.08;21.95;;;-0.40;99.90;;;;;;5131167;27;20069;-84
2023/02/08 09:24:44;;;;;;;35.20;22.60;;;-0.70;99.90;;;;;;5114518;27;20494;-83
2023/02/08 09:27:09;;;;;;;33.95;21.88;;;-0.40;99.90;;;;;;5123428;27;20062;-82
2023/02/08 09:29:35;;;;;;;32.78;21.65;;;-0.20;99.90;;;;;;5109672;27;20046;-80
2023/02/08 09:32:01;;;;;;;33.67;22.10;;;-0.20;99.90;;;;;;5120455;27;20483;-82
2023/02/08 09:34:27;;;;;;;31.88;21.73;;;-0.40;99.90;;;;;;5127438;27;20051;-82
2023/02/08 09:36:52;;;;;;;35.72;22.58;;;-0.30;99.90;;;;;;5128870;27;20053;-81
2023/02/08 09:39:23;;;;;;;36.42;22.90;;;-0.40;99.90;;;;;;5110277;27;20389;-81
2023/02/08 09:42:19;;;;;;;31.80;21.55;;;-0.10;99.90;;;;;;5110235;27;20161;-84
2023/02/08 09:45:04;;;;;;;32.70;21.00;;;0.00;99.90;;;;;;5108969;27;20111;-83
2023/02/08 09:47:35;;;;;;;34.77;21.70;;;0.00;99.90;;;;;;5105830;27;20500;-81
2023/02/08 09:50:10;;;;;;;33.47;21.60;;;-0.10;99.90;;;;;;5142030;27;20288;-81
2023/02/08 09:53:08;;;;;;;31.20;20.95;;;0.20;99.90;;;;;;5096704;27;20043;-82
2023/02/08 09:55:39;;;;;;;33.88;21.98;;;0.20;99.90;;;;;;5101294;27;20054;-82
2023/02/08 09:58:37;;;;;;;32.13;20.30;;;0.20;99.90;;;;;;5136741;27;20053;-81
2023/02/08 10:01:06;;;;;;;32.83;20.75;;;0.20;99.90;;;;;;5112146;27;21221;-82
2023/02/08 10:03:43;;;;;;;30.77;20.70;;;0.40;99.90;;;;;;5101383;27;20679;-80
2023/02/08 10:06:18;;;;;;;36.58;20.58;;;0.20;99.90;;;;;;5123835;27;20149;-81
2023/02/08 10:08:46;;;;;;;30.73;20.35;;;0.30;99.90;;;;;;5108292;27;20043;-81
2023/02/08 10:11:31;;;;;;;30.70;19.55;;;0.50;99.90;;;;;;5110436;27;20088;-82
2023/02/08 10:14:17;;;;;;;31.17;19.85;;;0.50;99.90;;;;;;5123355;27;20533;-82
2023/02/08 10:16:58;;;;;;;31.55;19.63;;;0.70;99.90;;;;;;5125528;27;20427;-81
2023/02/08 10:20:31;;;;;;;51.20;19.67;;;0.50;99.90;;;;;;5130569;27;20508;-82
2023/02/08 10:23:24;;;;;;;40.88;18.63;;;0.80;99.90;;;;;;5012912;28;20194;-82
2023/02/08 10:26:24;;;;;;;28.35;18.73;;;1.00;99.90;;;;;;5032352;28;20125;-82
2023/02/08 10:29:11;;;;;;;27.35;17.33;;;1.00;99.90;;;;;;5007593;28;20045;-81
2023/02/08 10:32:11;;;;;;;31.60;18.23;;;0.90;99.90;;;;;;5028591;28;20602;-81
2023/02/08 10:34:45;;;;;;;27.30;18.45;;;1.20;99.90;;;;;;5038734;28;20041;-82
2023/02/08 10:37:30;;;;;;;32.42;17.67;;;1.30;99.90;;;;;;5018579;28;20088;-80
2023/02/08 10:39:59;;;;;;;30.67;17.20;;;1.30;99.90;;;;;;5001123;28;20041;-82
2023/02/08 10:42:51;;;;;;;25.25;15.85;;;1.30;99.90;;;;;;5004657;28;20045;-81
2023/02/08 10:52:39;;;;;;;22.63;14.32;;;1.70;99.90;;;;;;4892193;29;20195;-81
2023/02/08 10:55:19;;;;;;;25.60;15.02;;;1.80;99.90;;;;;;4870612;29;20052;-82
2023/02/08 10:58:34;;;;;;;20.48;13.85;;;1.90;99.90;;;;;;4885530;29;20055;-81
2023/02/08 11:01:03;;;;;;;21.85;14.35;;;1.80;99.90;;;;;;4862724;29;20167;-82
2023/02/08 11:04:13;;;;;;;21.80;14.45;;;1.90;99.90;;;;;;4891289;29;20445;-81
2023/02/08 11:11:21;;;;;;;20.17;13.30;;;2.30;99.90;;;;;;4817374;29;20042;-82
2023/02/08 11:52:24;;;;;;;15.40;8.57;;;3.60;99.90;;;;;;5966142;23;4370570;-80
2023/02/08 11:56:01;;;;;;;13.48;7.72;;;3.90;99.90;;;;;;6055333;23;20113;-81
2023/02/08 11:58:56;;;;;;;12.38;7.75;;;3.90;99.90;;;;;;6072190;23;20046;-81
2023/02/08 12:01:36;;;;;;;12.27;7.22;;;3.90;99.90;;;;;;5988268;23;20045;-83
2023/02/08 12:05:53;;;;;;;14.02;7.78;;;4.10;99.90;;;;;;5985444;23;20232;-82
2023/02/08 12:08:02;;;;;;;11.85;8.05;;;4.10;99.90;;;;;;5896124;24;20090;-82
2023/02/08 12:11:15;;;;;;;12.73;8.23;;;4.20;99.90;;;;;;5927653;24;20028;-82
2023/02/08 12:14:38;;;;;;;11.52;7.50;;;4.20;99.90;;;;;;5924964;24;20089;-82
2023/02/08 12:18:15;;;;;;;11.40;7.55;;;4.30;99.90;;;;;;5908125;24;20165;-82
2023/02/08 12:21:34;;;;;;;11.48;7.45;;;4.40;99.90;;;;;;5933252;24;20055;-82
2023/02/08 12:24:47;;;;;;;11.18;7.57;;;4.40;99.90;;;;;;5904952;23;20149;-82
2023/02/08 12:28:03;;;;;;;11.55;7.38;;;4.50;99.90;;;;;;5919849;24;20020;-82
2023/02/08 12:30:55;;;;;;;10.38;6.85;;;4.70;99.90;;;;;;5831353;24;20013;-82
2023/02/08 12:33:34;;;;;;;9.23;6.28;;;4.70;99.90;;;;;;5894982;24;20021;-82
2023/02/08 12:36:36;;;;;;;9.40;6.45;;;4.80;99.90;;;;;;5894790;24;20096;-80
2023/02/08 12:47:31;;;;;;;9.68;6.57;;;5.20;99.90;;;;;;5862999;24;20030;-81
2023/02/08 12:50:40;;;;;;;7.78;5.78;;;5.30;99.90;;;;;;5841269;24;20115;-80
2023/02/08 12:53:51;;;;;;;9.23;5.55;;;5.30;99.90;;;;;;5860874;24;20036;-81
2023/02/08 12:56:46;;;;;;;8.82;6.00;;;5.20;99.90;;;;;;5839434;24;20087;-81
2023/02/08 13:02:16;;;;;;;8.00;5.32;;;5.40;99.90;;;;;;5842744;24;20064;-81
2023/02/08 13:04:59;;;;;;;8.82;5.60;;;5.30;99.90;;;;;;5865953;24;20039;-81
2023/02/08 13:07:42;;;;;;;9.60;5.80;;;5.30;99.90;;;;;;5819277;24;20580;-82
2023/02/08 13:10:51;;;;;;;7.75;5.72;;;5.30;99.90;;;;;;5819015;24;20026;-82
2023/02/08 13:14:16;;;;;;;8.10;5.80;;;5.50;99.90;;;;;;5843441;24;20530;-82
2023/02/08 13:20:33;;;;;;;7.95;5.60;;;5.40;99.90;;;;;;5767168;24;20014;-84
2023/02/08 13:23:48;;;;;;;8.50;6.15;;;5.60;99.90;;;;;;5826457;24;20021;-81
2023/02/08 13:26:43;;;;;;;8.98;6.05;;;5.50;99.90;;;;;;5920238;24;20050;-82
2023/02/08 13:29:42;;;;;;;8.23;5.87;;;5.50;99.90;;;;;;5918203;24;20032;-81
2023/02/08 13:44:06;;;;;;;7.13;5.13;;;5.70;99.50;;;;;;5864068;24;20026;-82
2023/02/08 13:55:10;;;;;;;6.93;4.82;;;5.70;98.20;;;;;;5961078;24;20127;-82
2023/02/08 14:10:14;;;;;;;;;;;;;;;;;;;;;
2023/02/08 14:16:48;;;;;;;10.68;5.28;;;5.90;99.90;;;;;;5743609;24;20031;-83
2023/02/08 14:19:19;;;;;;;10.80;5.50;;;5.90;99.90;;;;;;5783341;24;20053;-82
2023/02/08 14:21:46;;;;;;;7.38;5.20;;;5.90;99.90;;;;;;5867836;24;20049;-82
2023/02/08 14:24:32;;;;;;;5.88;4.43;;;5.90;99.90;;;;;;5845921;24;20526;-81
2023/02/08 14:27:36;;;;;;;5.97;4.30;;;5.90;99.90;;;;;;5823909;24;20029;-82
2023/02/08 14:30:18;;;;;;;6.18;4.93;;;5.90;99.40;;;;;;5845023;24;20085;-82
2023/02/08 14:33:15;;;;;;;8.75;5.20;;;5.90;99.20;;;;;;5843770;24;20017;-83
2023/02/08 14:37:26;;;;;;;9.27;4.70;;;6.00;99.10;;;;;;5813438;24;20119;-82
2023/02/08 14:40:08;;;;;;;5.53;4.13;;;5.90;99.30;;;;;;5784985;24;20020;-83
2023/02/08 14:43:47;;;;;;;6.72;4.60;;;5.90;99.70;;;;;;5813731;24;20053;-82
2023/02/08 14:47:15;;;;;;;6.60;4.30;;;5.90;99.00;;;;;;5803812;24;20026;-82
2023/02/08 14:58:15;;;;;;;5.45;4.00;;;5.80;98.40;;;;;;5807794;24;20074;-83
2023/02/08 15:01:35;;;;;;;5.45;4.00;;;5.80;99.50;;;;;;5784272;24;20015;-84
2023/02/08 15:37:08;;;;;;;8.23;4.60;;;5.00;99.90;;;;;;6224054;22;1444926;-83
2023/02/08 15:40:29;;;;;;;12.52;4.07;;;5.00;99.90;;;;;;6201204;23;20039;-81
2023/02/08 15:51:34;;;;;;;5.18;3.80;;;4.70;99.90;;;;;;5905797;24;20068;-82
2023/02/08 15:54:49;;;;;;;6.72;4.25;;;4.50;99.90;;;;;;5873937;24;20112;-81
2023/02/08 15:58:06;;;;;;;6.72;4.50;;;4.40;99.90;;;;;;5869200;24;20010;-81
2023/02/08 17:20:35;;;;;;;13.27;7.60;;;1.90;99.90;;;;;;6238038;23;20122;-81
2023/02/08 17:23:03;;;;;;;11.68;7.97;;;2.00;99.90;;;;;;6213260;23;20024;-81
2023/02/08 17:25:33;;;;;;;11.75;7.25;;;1.90;99.90;;;;;;6212219;23;20079;-84
2023/02/08 17:28:06;;;;;;;15.48;8.52;;;1.70;99.90;;;;;;6210928;23;20119;-82
2023/02/08 17:30:38;;;;;;;16.60;10.40;;;1.70;99.90;;;;;;6187248;23;20404;-81
2023/02/08 17:33:08;;;;;;;19.60;10.18;;;1.70;99.90;;;;;;6212295;23;20012;-82
2023/02/08 17:35:36;;;;;;;14.77;9.48;;;1.60;99.90;;;;;;6211382;23;20091;-85
2023/02/08 17:38:05;;;;;;;15.70;9.90;;;1.60;99.90;;;;;;6187041;23;20023;-84
2023/02/08 17:40:37;;;;;;;16.13;10.30;;;1.60;99.90;;;;;;6212045;23;20020;-81
2023/02/08 17:43:36;;;;;;;19.40;11.23;;;1.60;99.90;;;;;;6186991;23;20012;-82
2023/02/08 17:50:35;;;;;;;20.13;10.20;;;1.50;99.90;;;;;;6140112;23;20017;-84
2023/02/08 17:53:44;;;;;;;14.52;9.27;;;1.50;99.90;;;;;;6098212;23;20009;-84
2023/02/08 17:57:31;;;;;;;13.15;8.75;;;1.40;99.90;;;;;;5985858;23;20078;-83
2023/02/08 17:59:56;;;;;;;13.38;7.60;;;1.40;99.90;;;;;;6000786;23;20028;-82
2023/02/08 18:02:54;;;;;;;12.05;7.40;;;1.40;99.90;;;;;;6031258;23;20803;-85
2023/02/08 19:00:33;;;;;;;17.67;9.68;;;0.70;99.90;;;;;;5825079;22;11665561;-83
2023/02/08 19:03:35;;;;;;;;;;;;;;;;;;;;;
2023/02/08 19:10:59;;;;;;;;;;;;;;;;;;;;;
2023/02/08 20:15:00;;;;;;;15.07;10.10;;;0.20;99.90;;;;;;6040984;22;5839064;-84
2023/02/08 20:17:35;;;;;;;14.40;9.27;;;0.10;99.90;;;;;;6101718;23;20028;-84
2023/02/08 20:20:55;;;;;;;;;;;;;;;;;;;;;
2023/02/08 20:24:52;;;;;;;22.35;13.18;;;0.20;99.90;;;;;;5927894;24;20028;-85
2023/02/08 20:27:31;;;;;;;15.73;10.35;;;0.00;99.90;;;;;;5827820;24;20052;-84
2023/02/08 20:33:13;;;;;;;29.70;18.08;;;0.00;99.90;;;;;;5819778;24;20431;-83
2023/02/08 20:35:49;;;;;;;27.50;15.60;;;0.10;99.90;;;;;;5823756;24;20071;-82
2023/02/08 20:38:25;;;;;;;24.40;13.90;;;-0.10;99.90;;;;;;5824299;24;20018;-82
2023/02/08 20:41:04;;;;;;;25.98;13.15;;;-0.10;99.90;;;;;;5823783;24;20046;-82
2023/02/08 20:43:41;;;;;;;30.63;15.65;;;-0.10;99.90;;;;;;5812929;24;20459;-82
2023/02/08 20:46:29;;;;;;;27.70;13.30;;;0.10;99.90;;;;;;5814828;24;20956;-82
2023/02/08 20:49:14;;;;;;;28.02;14.50;;;-0.10;99.90;;;;;;5800632;24;20091;-83
2023/02/08 20:52:45;;;;;;;18.75;10.02;;;-0.10;99.90;;;;;;5858926;24;20379;-84
2023/02/08 21:01:00;;;;;;;15.73;8.63;;;-0.20;99.90;;;;;;6008083;23;20020;-83
2023/02/08 21:07:25;;;;;;;15.32;9.63;;;-0.30;99.90;;;;;;5999785;23;20151;-83
2023/02/08 21:10:10;;;;;;;16.77;9.55;;;-0.30;99.90;;;;;;5977100;23;20026;-84
2023/02/08 21:12:59;;;;;;;19.65;9.85;;;-0.30;99.90;;;;;;5953492;23;20051;-84
2023/02/08 21:15:30;;;;;;;20.15;11.30;;;-0.30;99.90;;;;;;5951364;24;20130;-85
2023/02/08 21:17:59;;;;;;;23.05;11.38;;;-0.30;99.90;;;;;;5950132;24;20016;-84
2023/02/08 21:20:25;;;;;;;24.90;12.15;;;-0.30;99.90;;;;;;5951225;24;20099;-85
2023/02/08 21:23:21;;;;;;;17.67;9.38;;;-0.40;99.90;;;;;;5969983;24;20020;-85
2023/02/08 21:25:47;;;;;;;16.33;8.85;;;-0.30;99.90;;;;;;5954563;24;20048;-84
2023/02/08 21:28:13;;;;;;;15.38;8.55;;;-0.30;99.90;;;;;;5951132;24;20121;-84
2023/02/08 21:30:39;;;;;;;13.40;8.70;;;-0.40;99.90;;;;;;5956802;24;20157;-85
2023/02/08 21:33:05;;;;;;;14.13;9.10;;;-0.30;99.90;;;;;;5949565;24;20023;-84
2023/02/08 21:35:34;;;;;;;15.98;9.57;;;-0.50;99.90;;;;;;5953823;23;20019;-84
2023/02/08 21:38:04;;;;;;;14.02;8.68;;;-0.50;99.90;;;;;;6004942;23;20018;-87
2023/02/08 21:40:31;;;;;;;14.20;9.20;;;-0.50;99.90;;;;;;6053217;23;20446;-87
2023/02/08 21:42:57;;;;;;;12.70;8.15;;;-0.50;99.90;;;;;;6113110;23;20016;-83
2023/02/08 21:45:23;;;;;;;18.55;9.07;;;-0.60;99.90;;;;;;6187086;23;20095;-82
2023/02/08 21:47:48;;;;;;;13.35;8.23;;;-0.50;99.90;;;;;;6179599;23;20127;-86
2023/02/08 21:55:46;;;;;;;14.80;8.32;;;-0.80;99.90;;;;;;6181693;23;20023;-83
2023/02/08 21:58:12;;;;;;;13.77;8.63;;;-0.70;99.90;;;;;;6183401;23;20008;-83
2023/02/08 22:00:38;;;;;;;14.10;8.52;;;-0.70;99.90;;;;;;6181574;23;20134;-84
2023/02/08 22:03:04;;;;;;;16.48;8.15;;;-0.70;99.90;;;;;;6155716;23;20056;-84
2023/02/08 22:08:14;;;;;;;13.60;8.50;;;-0.70;99.90;;;;;;6181282;23;20152;-86
2023/02/08 22:10:40;;;;;;;15.68;8.18;;;-0.80;99.90;;;;;;6158886;23;20051;-87
2023/02/08 22:13:09;;;;;;;14.20;7.57;;;-0.80;99.90;;;;;;6157122;23;20119;-83
2023/02/08 22:16:27;;;;;;;;;;;;;;;;;;;;;
2023/02/08 22:27:07;;;;;;;11.35;6.88;;;-0.80;99.90;;;;;;5923492;24;20089;-84
2023/02/08 22:30:00;;;;;;;12.38;6.90;;;-0.90;99.90;;;;;;5923130;24;20017;-84
2023/02/08 22:33:12;;;;;;;11.80;7.60;;;-0.90;99.90;;;;;;5919588;24;20853;-86
2023/02/08 22:36:15;;;;;;;10.98;6.93;;;-1.00;99.90;;;;;;5919565;24;20060;-85
2023/02/08 22:42:14;;;;;;;;;;;-1.20;99.90;;;;;;5920584;24;20094;-86
2023/02/08 22:45:27;;;;;;;11.70;7.03;;;-1.20;99.90;;;;;;5892818;24;19920;-85
2023/02/08 22:48:41;;;;;;;;;;;;;;;;;;;;;
2023/02/08 22:51:41;;;;;;;12.65;7.50;;;-1.20;99.90;;;;;;5891373;24;21038;-86
2023/02/08 22:54:36;;;;;;;12.88;7.25;;;-1.40;99.90;;;;;;5923037;23;20112;-83
2023/02/08 22:57:17;;;;;;;12.43;7.32;;;-1.40;99.90;;;;;;6008340;23;20198;-83
2023/02/08 22:59:46;;;;;;;13.65;7.90;;;-1.30;99.90;;;;;;6007598;23;20011;-85
2023/02/08 23:02:20;;;;;;;14.23;7.20;;;-1.40;99.90;;;;;;6047348;23;20216;-84
2023/02/08 23:04:56;;;;;;;15.77;6.45;;;-1.30;99.90;;;;;;6150742;23;20192;-85
2023/02/08 23:07:25;;;;;;;14.05;7.50;;;-1.50;99.90;;;;;;6153399;23;20016;-85
2023/02/08 23:09:59;;;;;;;12.40;7.43;;;-1.40;99.90;;;;;;6175447;23;20074;-84
2023/02/08 23:12:28;;;;;;;10.98;6.70;;;-1.40;99.90;;;;;;6171065;23;20103;-84
2023/02/08 23:15:00;;;;;;;12.55;7.22;;;-1.50;99.90;;;;;;6215900;23;20281;-84
2023/02/08 23:17:29;;;;;;;10.82;6.78;;;-1.50;99.90;;;;;;6215969;23;20020;-85
2023/02/08 23:23:23;;;;;;;11.55;7.00;;;-1.50;99.90;;;;;;6238652;23;20016;-83
2023/02/08 23:25:52;;;;;;;11.25;6.60;;;-1.50;99.90;;;;;;6213230;23;20012;-83
2023/02/08 23:28:18;;;;;;;11.43;6.38;;;-1.50;99.90;;;;;;6213340;23;20039;-85
2023/02/08 23:30:44;;;;;;;14.70;6.75;;;-1.40;99.90;;;;;;6213737;23;20039;-85
2023/02/08 23:33:10;;;;;;;11.13;6.32;;;-1.30;99.90;;;;;;6215931;23;20012;-84
2023/02/08 23:35:41;;;;;;;10.75;6.65;;;-1.30;99.90;;;;;;6217788;23;20012;-85
2023/02/08 23:38:08;;;;;;;10.38;6.25;;;-1.20;99.90;;;;;;6216618;23;20095;-85
2023/02/08 23:40:36;;;;;;;10.85;6.57;;;-1.10;99.90;;;;;;6241423;23;20016;-85
2023/02/08 23:43:05;;;;;;;12.73;6.72;;;-1.10;99.90;;;;;;6217046;23;20020;-86
2023/02/08 23:45:35;;;;;;;9.80;6.50;;;-1.10;99.90;;;;;;6216879;23;20044;-86
2023/02/08 23:48:06;;;;;;;11.90;6.78;;;-1.20;99.90;;;;;;6213143;23;20095;-86
2023/02/08 23:50:35;;;;;;;9.65;6.10;;;-1.20;99.90;;;;;;6214461;23;20015;-83
2023/02/08 23:53:01;;;;;;;11.68;6.65;;;-1.10;99.90;;;;;;6212952;23;20510;-84
2023/02/08 23:55:33;;;;;;;13.48;6.72;;;-1.00;99.90;;;;;;6212530;23;20020;-83
2023/02/08 23:58:04;;;;;;;12.15;6.60;;;-1.10;99.90;;;;;;6238062;23;20044;-84
